createdAt,value
2017-11-25T00:02:10.149Z,5.03
2017-11-25T00:04:38.694Z,4.65
2017-11-25T00:07:06.347Z,4.62
2017-11-25T00:09:33.987Z,3.92
2017-11-25T00:12:01.680Z,4.80
2017-11-25T00:14:29.299Z,4.85
2017-11-25T00:16:57.708Z,5.12
2017-11-25T00:19:25.541Z,5.27
2017-11-25T00:21:54.005Z,5.57
2017-11-25T00:24:21.690Z,5.97
2017-11-25T00:26:49.657Z,5.62
2017-11-25T00:29:17.294Z,6.12
2017-11-25T00:31:44.911Z,6.45
2017-11-25T00:34:13.744Z,5.70
2017-11-25T00:36:41.406Z,6.12
2017-11-25T00:39:09.073Z,5.45
2017-11-25T00:41:36.884Z,5.32
2017-11-25T00:44:04.543Z,5.55
2017-11-25T00:46:32.189Z,5.57
2017-11-25T00:48:59.969Z,4.72
2017-11-25T00:51:27.668Z,5.95
2017-11-25T00:53:56.111Z,5.20
2017-11-25T00:56:23.774Z,5.20
2017-11-25T00:58:51.433Z,5.00
2017-11-25T01:01:19.074Z,5.28
2017-11-25T01:03:47.601Z,4.55
2017-11-25T01:06:15.218Z,5.17
2017-11-25T01:08:43.614Z,5.53
2017-11-25T01:11:11.301Z,5.40
2017-11-25T01:13:38.918Z,5.50
2017-11-25T01:16:06.554Z,4.95
2017-11-25T01:18:34.244Z,4.82
2017-11-25T01:21:01.869Z,4.78
2017-11-25T01:23:29.814Z,5.17
2017-11-25T01:25:58.243Z,5.18
2017-11-25T01:28:25.861Z,4.80
2017-11-25T01:30:54.286Z,4.93
2017-11-25T01:33:21.944Z,4.93
2017-11-25T01:35:49.587Z,4.72
2017-11-25T01:38:17.988Z,5.15
2017-11-25T01:40:45.656Z,5.05
2017-11-25T01:43:13.291Z,5.25
2017-11-25T01:45:41.744Z,5.15
2017-11-25T01:48:09.351Z,5.27
2017-11-25T01:50:37.759Z,5.25
2017-11-25T01:53:05.492Z,4.70
2017-11-25T01:55:33.878Z,4.87
2017-11-25T01:58:02.333Z,4.80
2017-11-25T02:00:30.007Z,4.85
2017-11-25T02:02:58.087Z,5.30
2017-11-25T02:05:25.750Z,5.22
2017-11-25T02:07:53.359Z,4.63
2017-11-25T02:10:21.026Z,4.50
2017-11-25T02:12:48.655Z,5.35
2017-11-25T02:15:16.318Z,5.55
2017-11-25T02:17:44.775Z,5.23
2017-11-25T02:20:12.390Z,4.97
2017-11-25T02:22:40.767Z,4.93
2017-11-25T02:25:09.515Z,4.78
2017-11-25T02:27:37.908Z,5.35
2017-11-25T02:30:05.589Z,4.95
2017-11-25T02:32:33.253Z,5.57
2017-11-25T02:35:00.949Z,5.43
2017-11-25T02:37:29.368Z,5.00
2017-11-25T02:39:57.017Z,4.82
2017-11-25T02:42:25.443Z,5.47
2017-11-25T02:44:53.084Z,4.68
2017-11-25T02:47:20.734Z,4.97
2017-11-25T02:49:49.165Z,4.20
2017-11-25T02:52:16.820Z,4.78
2017-11-25T02:54:44.486Z,4.72
2017-11-25T02:57:12.122Z,4.70
2017-11-25T02:59:39.777Z,5.37
2017-11-25T03:02:08.293Z,4.68
2017-11-25T03:04:35.973Z,4.57
2017-11-25T03:07:03.596Z,4.62
2017-11-25T03:09:31.222Z,4.43
2017-11-25T03:11:58.878Z,4.90
2017-11-25T03:14:26.532Z,4.62
2017-11-25T03:16:54.203Z,4.35
2017-11-25T03:19:22.096Z,3.95
2017-11-25T03:21:49.727Z,4.40
2017-11-25T03:24:17.393Z,4.53
2017-11-25T03:26:48.457Z,4.75
2017-11-25T03:29:16.092Z,4.57
2017-11-25T03:31:43.728Z,4.00
2017-11-25T03:34:11.405Z,4.78
2017-11-25T03:36:39.181Z,4.60
2017-11-25T03:39:06.815Z,3.92
2017-11-25T03:41:34.461Z,4.22
2017-11-25T03:44:02.143Z,3.78
2017-11-25T03:46:30.105Z,4.23
2017-11-25T03:48:57.725Z,4.40
2017-11-25T03:51:25.385Z,4.28
2017-11-25T03:53:53.811Z,4.05
2017-11-25T03:56:21.478Z,4.00
2017-11-25T03:58:49.158Z,3.67
2017-11-25T04:01:16.817Z,4.00
2017-11-25T04:03:44.481Z,3.45
2017-11-25T04:06:12.129Z,3.72
2017-11-25T04:08:39.780Z,3.53
2017-11-25T04:11:08.185Z,3.37
2017-11-25T04:13:36.582Z,3.50
2017-11-25T04:16:04.413Z,3.17
2017-11-25T04:18:32.818Z,3.45
2017-11-25T04:21:00.488Z,3.40
2017-11-25T04:23:28.149Z,3.37
2017-11-25T04:25:55.811Z,3.33
2017-11-25T04:28:23.757Z,3.45
2017-11-25T04:30:51.418Z,3.40
2017-11-25T04:33:19.812Z,2.97
2017-11-25T04:35:48.293Z,3.37
2017-11-25T04:38:15.977Z,2.97
2017-11-25T04:40:43.771Z,3.20
2017-11-25T04:43:11.398Z,2.70
2017-11-25T04:45:39.822Z,3.10
2017-11-25T04:48:07.741Z,2.80
2017-11-25T04:50:35.379Z,2.87
2017-11-25T04:53:03.035Z,2.60
2017-11-25T04:55:30.718Z,2.80
2017-11-25T04:57:58.359Z,2.92
2017-11-25T05:00:26.022Z,2.90
2017-11-25T05:02:53.742Z,2.60
2017-11-25T05:05:21.386Z,3.00
2017-11-25T05:07:49.105Z,2.58
2017-11-25T05:10:17.511Z,2.55
2017-11-25T05:12:45.146Z,2.72
2017-11-25T05:15:13.548Z,2.92
2017-11-25T05:17:41.209Z,3.03
2017-11-25T05:20:08.870Z,2.87
2017-11-25T05:22:36.560Z,2.83
2017-11-25T05:25:04.298Z,2.95
2017-11-25T05:27:32.972Z,2.70
2017-11-25T05:30:00.594Z,3.35
2017-11-25T05:32:28.279Z,2.97
2017-11-25T05:34:55.994Z,2.83
2017-11-25T05:37:23.634Z,2.85
2017-11-25T05:39:51.259Z,2.80
2017-11-25T05:42:18.923Z,2.80
2017-11-25T05:44:46.589Z,2.97
2017-11-25T05:47:14.234Z,2.92
2017-11-25T05:49:42.655Z,3.17
2017-11-25T05:52:10.285Z,3.15
2017-11-25T05:54:38.857Z,2.93
2017-11-25T05:57:06.458Z,3.05
2017-11-25T05:59:34.079Z,3.08
2017-11-25T06:02:01.752Z,2.85
2017-11-25T06:04:29.415Z,3.58
2017-11-25T06:06:57.074Z,3.53
2017-11-25T06:09:24.830Z,3.15
2017-11-25T06:11:52.427Z,3.47
2017-11-25T06:14:20.803Z,3.30
2017-11-25T06:16:49.248Z,3.85
2017-11-25T06:19:16.906Z,3.80
2017-11-25T06:21:44.509Z,3.65
2017-11-25T06:24:12.454Z,3.65
2017-11-25T06:26:40.546Z,3.72
2017-11-25T06:29:08.517Z,3.95
2017-11-25T06:31:36.297Z,3.70
2017-11-25T06:34:05.337Z,3.83
2017-11-25T06:36:33.328Z,4.47
2017-11-25T06:39:00.950Z,4.45
2017-11-25T06:41:28.560Z,4.30
2017-11-25T06:43:56.233Z,4.78
2017-11-25T06:46:23.849Z,4.20
2017-11-25T06:48:51.473Z,4.35
2017-11-25T06:51:19.154Z,4.40
2017-11-25T06:53:46.795Z,4.07
2017-11-25T06:56:14.449Z,4.53
2017-11-25T06:58:42.072Z,4.65
2017-11-25T07:01:09.745Z,4.10
2017-11-25T07:03:38.137Z,4.90
2017-11-25T07:06:06.890Z,4.43
2017-11-25T07:08:34.580Z,4.60
2017-11-25T07:11:02.242Z,4.22
2017-11-25T07:13:29.896Z,4.65
2017-11-25T07:15:57.531Z,3.70
2017-11-25T07:18:25.329Z,3.90
2017-11-25T07:20:52.984Z,4.45
2017-11-25T07:23:20.651Z,4.17
2017-11-25T07:25:48.340Z,3.58
2017-11-25T07:28:15.975Z,3.90
2017-11-25T07:30:43.670Z,4.00
2017-11-25T07:33:11.361Z,3.90
2017-11-25T07:35:38.976Z,3.33
2017-11-25T07:38:06.616Z,3.70
2017-11-25T07:40:34.340Z,3.37
2017-11-25T07:43:02.291Z,3.70
2017-11-25T07:45:29.945Z,3.28
2017-11-25T07:47:57.612Z,3.10
2017-11-25T07:50:25.332Z,3.00
2017-11-25T07:52:53.023Z,2.90
2017-11-25T07:55:21.465Z,2.83
2017-11-25T07:57:49.261Z,2.90
2017-11-25T08:00:16.904Z,2.92
2017-11-25T08:02:44.569Z,2.58
2017-11-25T08:05:12.526Z,2.30
2017-11-25T08:07:40.224Z,2.97
2017-11-25T08:10:08.639Z,2.50
2017-11-25T08:12:37.123Z,2.42
2017-11-25T08:15:04.815Z,2.85
2017-11-25T08:17:32.475Z,2.62
2017-11-25T08:20:00.340Z,2.12
2017-11-25T08:22:27.999Z,2.22
2017-11-25T08:24:56.420Z,2.47
2017-11-25T08:27:24.146Z,2.50
2017-11-25T08:29:51.876Z,2.45
2017-11-25T08:32:19.477Z,2.33
2017-11-25T08:34:47.920Z,2.30
2017-11-25T08:37:15.557Z,2.17
2017-11-25T08:39:43.184Z,2.33
2017-11-25T08:42:11.635Z,2.15
2017-11-25T08:44:39.245Z,2.15
2017-11-25T08:47:07.655Z,2.08
2017-11-25T08:49:35.326Z,2.00
2017-11-25T08:52:03.225Z,2.10
2017-11-25T08:54:30.854Z,2.20
2017-11-25T08:56:59.246Z,2.47
2017-11-25T08:59:26.957Z,2.22
2017-11-25T09:01:54.576Z,1.90
2017-11-25T09:04:22.218Z,2.10
2017-11-25T09:06:50.602Z,2.25
2017-11-25T09:09:18.268Z,2.00
2017-11-25T09:11:46.999Z,2.03
2017-11-25T09:14:14.600Z,1.90
2017-11-25T09:16:42.216Z,1.98
2017-11-25T09:19:09.852Z,2.00
2017-11-25T09:21:38.241Z,1.90
2017-11-25T09:24:06.618Z,2.20
2017-11-25T09:26:35.334Z,1.95
2017-11-25T09:29:02.972Z,2.25
2017-11-25T09:31:31.358Z,2.10
2017-11-25T09:33:59.000Z,2.40
2017-11-25T09:36:26.637Z,2.03
2017-11-25T09:38:54.754Z,2.00
2017-11-25T09:41:22.375Z,1.90
2017-11-25T09:43:49.988Z,2.20
2017-11-25T09:46:17.649Z,2.03
2017-11-25T09:48:45.282Z,1.85
2017-11-25T09:51:12.929Z,2.33
2017-11-25T09:53:40.564Z,2.15
2017-11-25T09:56:08.987Z,1.90
2017-11-25T09:58:36.646Z,2.30
2017-11-25T10:01:04.313Z,2.12
2017-11-25T10:03:32.145Z,1.80
2017-11-25T10:05:59.808Z,2.40
2017-11-25T10:08:27.526Z,2.10
2017-11-25T10:10:55.246Z,2.10
2017-11-25T10:13:22.913Z,2.10
2017-11-25T10:15:50.612Z,2.17
2017-11-25T10:18:19.021Z,2.37
2017-11-25T10:20:46.727Z,2.10
2017-11-25T10:23:14.415Z,2.08
2017-11-25T10:25:42.787Z,2.37
2017-11-25T10:28:10.491Z,2.37
2017-11-25T10:30:38.907Z,2.87
2017-11-25T10:33:06.596Z,2.05
2017-11-25T10:35:34.234Z,1.87
2017-11-25T10:38:01.942Z,2.50
2017-11-25T10:40:30.567Z,2.30
2017-11-25T10:42:58.249Z,2.10
2017-11-25T10:45:25.866Z,2.43
2017-11-25T10:47:53.685Z,2.22
2017-11-25T10:50:21.323Z,2.03
2017-11-25T10:52:50.527Z,2.03
2017-11-25T10:55:18.284Z,2.25
2017-11-25T10:57:45.924Z,2.10
2017-11-25T11:00:13.598Z,2.00
2017-11-25T11:02:41.258Z,2.07
2017-11-25T11:05:09.739Z,1.87
2017-11-25T11:07:37.407Z,1.67
2017-11-25T11:10:05.073Z,1.90
2017-11-25T11:12:32.822Z,2.10
2017-11-25T11:15:00.591Z,2.12
2017-11-25T11:17:29.045Z,2.08
2017-11-25T11:19:57.877Z,1.65
2017-11-25T11:22:25.558Z,1.90
2017-11-25T11:24:53.187Z,1.70
2017-11-25T11:27:20.899Z,1.70
2017-11-25T11:29:48.522Z,1.55
2017-11-25T11:32:16.172Z,1.70
2017-11-25T11:34:43.839Z,1.30
2017-11-25T11:37:11.561Z,1.48
2017-11-25T11:39:39.171Z,1.80
2017-11-25T11:42:07.729Z,1.50
2017-11-25T11:44:35.389Z,2.10
2017-11-25T11:47:03.060Z,2.00
2017-11-25T11:49:30.737Z,1.80
2017-11-25T11:51:59.171Z,1.67
2017-11-25T11:54:26.807Z,1.90
2017-11-25T11:56:55.370Z,1.60
2017-11-25T11:59:23.004Z,1.70
2017-11-25T12:01:50.668Z,1.45
2017-11-25T12:04:18.448Z,1.90
2017-11-25T12:06:46.948Z,1.70
2017-11-25T12:09:14.579Z,1.60
2017-11-25T12:11:42.249Z,1.70
2017-11-25T12:14:10.214Z,1.30
2017-11-25T12:16:37.846Z,1.60
2017-11-25T12:19:05.484Z,1.87
2017-11-25T12:21:34.225Z,1.40
2017-11-25T12:24:01.882Z,1.60
2017-11-25T12:26:30.276Z,1.85
2017-11-25T12:28:58.221Z,1.70
2017-11-25T12:31:26.672Z,1.87
2017-11-25T12:33:55.080Z,1.60
2017-11-25T12:36:22.860Z,1.80
2017-11-25T12:38:50.605Z,1.48
2017-11-25T12:41:19.072Z,1.60
2017-11-25T12:43:46.769Z,1.50
2017-11-25T12:46:14.443Z,1.40
2017-11-25T12:48:42.868Z,1.50
2017-11-25T12:51:10.586Z,1.60
2017-11-25T12:53:39.290Z,1.42
2017-11-25T12:56:07.789Z,1.40
2017-11-25T12:58:36.263Z,1.40
2017-11-25T13:01:04.703Z,1.50
2017-11-25T13:03:32.369Z,1.50
2017-11-25T13:06:02.438Z,1.65
2017-11-25T13:08:30.160Z,1.30
2017-11-25T13:10:57.789Z,1.30
2017-11-25T13:13:25.508Z,1.98
2017-11-25T13:15:53.993Z,1.55
2017-11-25T13:18:21.703Z,1.42
2017-11-25T13:20:51.155Z,1.52
2017-11-25T13:23:20.603Z,1.70
2017-11-25T13:25:49.158Z,1.52
2017-11-25T13:28:16.802Z,1.35
2017-11-25T13:30:44.511Z,1.48
2017-11-25T13:33:12.983Z,1.40
2017-11-25T13:35:42.383Z,1.60
2017-11-25T13:38:10.111Z,1.60
2017-11-25T13:40:38.894Z,1.42
2017-11-25T13:43:08.185Z,1.45
2017-11-25T13:45:38.865Z,1.80
2017-11-25T13:48:09.423Z,1.50
2017-11-25T13:50:37.487Z,1.47
2017-11-25T13:53:15.072Z,1.87
2017-11-25T13:55:43.917Z,1.83
2017-11-25T13:58:12.982Z,1.75
2017-11-25T14:00:40.838Z,1.70
2017-11-25T14:03:09.562Z,1.62
2017-11-25T14:05:37.221Z,1.75
2017-11-25T14:08:04.823Z,1.60
2017-11-25T14:10:33.241Z,1.60
2017-11-25T14:13:00.871Z,1.62
2017-11-25T14:15:29.441Z,1.67
2017-11-25T14:17:57.135Z,1.50
2017-11-25T14:20:25.523Z,2.00
2017-11-25T14:22:54.233Z,1.73
2017-11-25T14:25:22.943Z,1.80
2017-11-25T14:27:50.615Z,1.50
2017-11-25T14:30:18.301Z,1.90
2017-11-25T14:32:46.788Z,1.77
2017-11-25T14:35:14.488Z,1.50
2017-11-25T14:37:43.136Z,2.00
2017-11-25T14:40:11.729Z,1.70
2017-11-25T14:42:39.389Z,1.70
2017-11-25T14:45:07.390Z,1.85
2017-11-25T14:47:35.836Z,1.85
2017-11-25T14:50:04.310Z,1.80
2017-11-25T14:52:32.782Z,1.52
2017-11-25T14:55:00.430Z,1.62
2017-11-25T14:57:28.087Z,1.95
2017-11-25T14:59:55.742Z,1.73
2017-11-25T15:02:23.403Z,1.80
2017-11-25T15:04:51.075Z,1.92
2017-11-25T15:07:19.790Z,1.90
2017-11-25T15:09:47.453Z,1.55
2017-11-25T15:12:15.075Z,1.58
2017-11-25T15:14:42.750Z,1.80
2017-11-25T15:17:10.401Z,1.83
2017-11-25T15:19:38.044Z,1.70
2017-11-25T15:22:05.734Z,1.60
2017-11-25T15:24:33.378Z,1.85
2017-11-25T15:27:00.999Z,1.60
2017-11-25T15:29:29.431Z,1.83
2017-11-25T15:31:57.096Z,1.95
2017-11-25T15:34:24.778Z,1.62
2017-11-25T15:36:52.432Z,1.90
2017-11-25T15:39:20.041Z,1.73
2017-11-25T15:41:47.713Z,1.70
2017-11-25T15:44:18.575Z,1.55
2017-11-25T15:46:46.716Z,1.70
2017-11-25T15:49:15.216Z,2.00
2017-11-25T15:51:43.590Z,1.90
2017-11-25T15:54:11.415Z,1.70
2017-11-25T15:56:39.076Z,1.70
2017-11-25T15:59:06.697Z,1.83
2017-11-25T16:01:34.380Z,1.90
2017-11-25T16:04:02.214Z,1.77
2017-11-25T16:06:29.849Z,1.70
2017-11-25T16:08:57.467Z,1.58
2017-11-25T16:11:26.729Z,1.90
2017-11-25T16:13:54.408Z,1.87
2017-11-25T16:16:22.845Z,1.80
2017-11-25T16:18:50.523Z,1.80
2017-11-25T16:21:18.166Z,1.70
2017-11-25T16:23:46.602Z,1.90
2017-11-25T16:26:14.205Z,1.70
2017-11-25T16:28:42.615Z,1.90
2017-11-25T16:31:10.309Z,2.10
2017-11-25T16:33:38.302Z,2.30
2017-11-25T16:36:05.984Z,1.92
2017-11-25T16:38:33.590Z,1.83
2017-11-25T16:41:01.234Z,2.00
2017-11-25T16:43:29.713Z,2.45
2017-11-25T16:45:57.345Z,1.90
2017-11-25T16:48:24.985Z,1.90
2017-11-25T16:50:52.661Z,2.00
2017-11-25T16:53:20.303Z,2.00
2017-11-25T16:55:47.962Z,2.05
2017-11-25T16:58:15.810Z,2.20
2017-11-25T17:00:43.459Z,1.92
2017-11-25T17:03:11.112Z,2.22
2017-11-25T17:05:39.205Z,2.45
2017-11-25T17:08:06.879Z,2.15
2017-11-25T17:10:34.548Z,2.22
2017-11-25T17:13:02.244Z,2.42
2017-11-25T17:15:29.926Z,2.08
2017-11-25T17:17:57.613Z,2.00
2017-11-25T17:20:25.259Z,2.25
2017-11-25T17:22:52.850Z,2.53
2017-11-25T17:25:23.071Z,2.60
2017-11-25T17:27:50.696Z,2.22
2017-11-25T17:30:19.106Z,2.70
2017-11-25T17:32:47.093Z,2.42
2017-11-25T17:35:14.700Z,2.37
2017-11-25T17:37:42.351Z,2.22
2017-11-25T17:40:10.144Z,2.00
2017-11-25T17:42:37.817Z,2.17
2017-11-25T17:45:05.499Z,2.23
2017-11-25T17:47:33.444Z,2.10
2017-11-25T17:50:01.077Z,2.30
2017-11-25T17:52:28.747Z,2.40
2017-11-25T17:54:56.652Z,2.40
2017-11-25T17:57:25.115Z,2.20
2017-11-25T17:59:52.829Z,2.40
2017-11-25T18:02:21.381Z,2.37
2017-11-25T18:04:49.041Z,2.42
2017-11-25T18:07:16.716Z,2.00
2017-11-25T18:09:44.398Z,2.40
2017-11-25T18:12:12.007Z,2.30
2017-11-25T18:14:39.720Z,2.50
2017-11-25T18:17:08.182Z,2.67
2017-11-25T18:19:35.791Z,2.85
2017-11-25T18:22:04.236Z,3.00
2017-11-25T18:24:32.973Z,2.90
2017-11-25T18:27:01.362Z,3.10
2017-11-25T18:29:29.807Z,3.37
2017-11-25T18:31:57.438Z,3.40
2017-11-25T18:34:25.096Z,3.40
2017-11-25T18:36:52.743Z,3.60
2017-11-25T18:39:21.126Z,3.47
2017-11-25T18:41:49.541Z,3.90
2017-11-25T18:44:17.215Z,3.47
2017-11-25T18:46:44.839Z,3.40
2017-11-25T18:49:13.224Z,4.40
2017-11-25T18:51:40.879Z,4.00
2017-11-25T18:54:08.512Z,4.00
2017-11-25T18:56:36.157Z,4.37
2017-11-25T18:59:04.014Z,4.47
2017-11-25T19:01:31.717Z,4.53
2017-11-25T19:03:59.362Z,4.12
2017-11-25T19:06:27.351Z,4.82
2017-11-25T19:08:54.972Z,4.18
2017-11-25T19:11:23.403Z,4.37
2017-11-25T19:13:51.351Z,3.97
2017-11-25T19:16:18.967Z,4.10
2017-11-25T19:18:46.592Z,4.87
2017-11-25T19:21:14.253Z,4.50
2017-11-25T19:23:41.917Z,4.60
2017-11-25T19:26:09.681Z,4.53
2017-11-25T19:28:37.314Z,4.50
2017-11-25T19:31:05.698Z,4.62
2017-11-25T19:33:33.635Z,4.05
2017-11-25T19:36:01.279Z,4.32
2017-11-25T19:38:28.920Z,4.50
2017-11-25T19:40:57.604Z,4.80
2017-11-25T19:43:25.987Z,4.85
2017-11-25T19:45:54.425Z,4.65
2017-11-25T19:48:22.116Z,5.00
2017-11-25T19:50:49.777Z,4.47
2017-11-25T19:53:17.395Z,4.75
2017-11-25T19:55:45.029Z,4.70
2017-11-25T19:58:13.007Z,4.47
2017-11-25T20:00:40.649Z,5.28
2017-11-25T20:03:08.268Z,4.62
2017-11-25T20:05:37.017Z,5.07
2017-11-25T20:08:04.646Z,4.37
2017-11-25T20:10:33.093Z,4.68
2017-11-25T20:13:00.753Z,4.95
2017-11-25T20:15:29.254Z,4.45
2017-11-25T20:17:56.859Z,4.63
2017-11-25T20:20:24.631Z,5.15
2017-11-25T20:22:52.284Z,4.80
2017-11-25T20:25:20.705Z,5.22
2017-11-25T20:27:48.373Z,5.28
2017-11-25T20:30:16.014Z,4.60
2017-11-25T20:32:43.615Z,4.85
2017-11-25T20:35:11.287Z,5.07
2017-11-25T20:37:38.916Z,4.80
2017-11-25T20:40:06.572Z,5.40
2017-11-25T20:42:35.022Z,5.03
2017-11-25T20:45:02.677Z,5.87
2017-11-25T20:47:30.302Z,4.82
2017-11-25T20:49:57.945Z,4.90
2017-11-25T20:52:26.682Z,4.93
2017-11-25T20:54:54.277Z,5.27
2017-11-25T20:57:21.943Z,5.50
2017-11-25T20:59:49.635Z,5.28
2017-11-25T21:02:18.048Z,4.97
2017-11-25T21:04:45.660Z,5.90
2017-11-25T21:07:13.578Z,6.00
2017-11-25T21:09:41.188Z,5.60
2017-11-25T21:12:08.884Z,5.40
2017-11-25T21:14:37.678Z,5.68
2017-11-25T21:17:06.094Z,5.30
2017-11-25T21:19:33.762Z,5.20
2017-11-25T21:22:01.443Z,4.77
2017-11-25T21:24:29.148Z,5.12
2017-11-25T21:26:57.023Z,4.62
2017-11-25T21:29:27.233Z,4.75
2017-11-25T21:31:55.899Z,5.00
2017-11-25T21:34:23.549Z,4.97
2017-11-25T21:36:51.171Z,4.90
2017-11-25T21:39:18.845Z,4.75
2017-11-25T21:41:47.271Z,4.70
2017-11-25T21:44:15.285Z,4.90
2017-11-25T21:46:42.913Z,4.70
2017-11-25T21:49:10.529Z,4.68
2017-11-25T21:51:38.164Z,5.10
2017-11-25T21:54:05.802Z,4.87
2017-11-25T21:56:33.422Z,5.10
2017-11-25T21:59:01.074Z,4.62
2017-11-25T22:01:28.706Z,4.45
2017-11-25T22:03:56.324Z,4.90
2017-11-25T22:06:23.993Z,4.65
2017-11-25T22:08:51.825Z,4.90
2017-11-25T22:11:19.485Z,5.30
2017-11-25T22:13:47.511Z,5.00
2017-11-25T22:16:16.029Z,4.95
2017-11-25T22:18:43.664Z,5.00
2017-11-25T22:21:11.331Z,5.30
2017-11-25T22:23:39.785Z,5.25
2017-11-25T22:26:07.430Z,5.45
2017-11-25T22:28:35.031Z,5.07
2017-11-25T22:31:02.794Z,5.60
2017-11-25T22:33:30.527Z,4.97
2017-11-25T22:35:58.167Z,5.28
2017-11-25T22:38:26.578Z,5.67
2017-11-25T22:40:54.204Z,4.55
2017-11-25T22:43:21.888Z,5.00
2017-11-25T22:45:50.335Z,5.57
2017-11-25T22:48:18.710Z,5.23
2017-11-25T22:50:46.331Z,4.95
2017-11-25T22:53:14.719Z,5.70
2017-11-25T22:55:42.356Z,5.25
2017-11-25T22:58:10.866Z,5.37
2017-11-25T23:00:38.511Z,5.72
2017-11-25T23:03:06.878Z,6.00
2017-11-25T23:08:36.503Z,5.57
2017-11-25T23:11:05.012Z,5.30
2017-11-25T23:13:33.392Z,5.80
2017-11-25T23:16:01.016Z,5.43
2017-11-25T23:18:28.669Z,5.50
2017-11-25T23:20:56.268Z,5.57
2017-11-25T23:23:23.882Z,5.93
2017-11-25T23:25:51.930Z,5.80
2017-11-25T23:28:20.351Z,5.60
2017-11-25T23:30:47.974Z,5.93
2017-11-25T23:33:16.513Z,6.07
2017-11-25T23:35:44.138Z,6.17
2017-11-25T23:38:12.511Z,6.20
2017-11-25T23:40:41.224Z,6.07
2017-11-25T23:43:08.865Z,6.28
2017-11-25T23:45:36.511Z,5.87
2017-11-25T23:48:04.165Z,5.97
2017-11-25T23:50:31.825Z,5.97
2017-11-25T23:52:59.446Z,6.40
2017-11-25T23:55:27.974Z,6.00
2017-11-25T23:57:55.706Z,5.90
